Terminal Aerodrome Forecast
Issued by NWS Jackson, MS

Home | Current Version | Previous Version | Text Only | Print | Product List | Glossary On
Versions: 1 2 3 4 5 6 7 8 9 10 11 12
000
FTUS44 KJAN 311700
TAFJAN
TAF
KJAN 311737Z 3118/0118 11004KT P6SM FEW090 BKN110
     FM311900 02007KT P6SM VCSH SCT040 OVC060
     FM010000 07003KT P6SM OVC040
     FM010100 00000KT P6SM OVC250
     FM011100 VRB03KT P6SM BKN100=

USA.gov is the U.S. government's official web portal to all federal, state and local government web resources and services.